sensor_id;sensor_type;location;lat;lon;timestamp;P1;durP1;ratioP1;P2;durP2;ratioP2
40122;SDS011;25832;45.490;4.912;2022-10-17T00:00:50;4.80;;;3.65;;
40122;SDS011;25832;45.490;4.912;2022-10-17T00:03:15;6.93;;;3.25;;
40122;SDS011;25832;45.490;4.912;2022-10-17T00:05:42;7.70;;;3.90;;
40122;SDS011;25832;45.490;4.912;2022-10-17T00:08:09;4.45;;;3.17;;
40122;SDS011;25832;45.490;4.912;2022-10-17T00:10:37;6.90;;;3.58;;
40122;SDS011;25832;45.490;4.912;2022-10-17T00:13:03;7.28;;;3.55;;
40122;SDS011;25832;45.490;4.912;2022-10-17T00:15:29;8.02;;;3.53;;
40122;SDS011;25832;45.490;4.912;2022-10-17T00:17:56;6.05;;;3.60;;
40122;SDS011;25832;45.490;4.912;2022-10-17T00:20:22;6.18;;;3.78;;
40122;SDS011;25832;45.490;4.912;2022-10-17T00:22:47;5.65;;;3.38;;
40122;SDS011;25832;45.490;4.912;2022-10-17T00:25:13;6.30;;;3.42;;
40122;SDS011;25832;45.490;4.912;2022-10-17T00:27:40;5.03;;;3.80;;
40122;SDS011;25832;45.490;4.912;2022-10-17T00:30:06;7.10;;;3.47;;
40122;SDS011;25832;45.490;4.912;2022-10-17T00:32:35;8.60;;;4.22;;
40122;SDS011;25832;45.490;4.912;2022-10-17T00:35:01;4.90;;;3.70;;
40122;SDS011;25832;45.490;4.912;2022-10-17T00:37:28;7.18;;;3.33;;
40122;SDS011;25832;45.490;4.912;2022-10-17T00:39:55;4.68;;;3.67;;
40122;SDS011;25832;45.490;4.912;2022-10-17T00:42:20;4.40;;;3.38;;
40122;SDS011;25832;45.490;4.912;2022-10-17T00:47:15;6.07;;;3.55;;
40122;SDS011;25832;45.490;4.912;2022-10-17T00:49:45;6.57;;;3.80;;
40122;SDS011;25832;45.490;4.912;2022-10-17T00:52:12;4.35;;;2.97;;
40122;SDS011;25832;45.490;4.912;2022-10-17T00:54:43;6.75;;;3.70;;
40122;SDS011;25832;45.490;4.912;2022-10-17T00:57:13;3.67;;;2.88;;
40122;SDS011;25832;45.490;4.912;2022-10-17T00:59:40;8.68;;;4.82;;
40122;SDS011;25832;45.490;4.912;2022-10-17T01:02:14;4.72;;;3.10;;
40122;SDS011;25832;45.490;4.912;2022-10-17T01:04:42;7.03;;;4.32;;
40122;SDS011;25832;45.490;4.912;2022-10-17T01:07:10;6.85;;;3.03;;
40122;SDS011;25832;45.490;4.912;2022-10-17T01:09:36;5.25;;;3.28;;
40122;SDS011;25832;45.490;4.912;2022-10-17T01:23:29;5.40;;;3.03;;
40122;SDS011;25832;45.490;4.912;2022-10-17T01:28:58;7.60;;;2.90;;
40122;SDS011;25832;45.490;4.912;2022-10-17T01:31:36;6.57;;;3.63;;
40122;SDS011;25832;45.490;4.912;2022-10-17T01:34:17;6.35;;;3.10;;
40122;SDS011;25832;45.490;4.912;2022-10-17T01:37:02;3.88;;;2.75;;
40122;SDS011;25832;45.490;4.912;2022-10-17T01:42:16;5.20;;;3.05;;
40122;SDS011;25832;45.490;4.912;2022-10-17T01:44:58;4.88;;;3.22;;
40122;SDS011;25832;45.490;4.912;2022-10-17T01:47:31;5.60;;;3.00;;
40122;SDS011;25832;45.490;4.912;2022-10-17T01:50:04;4.07;;;3.00;;
40122;SDS011;25832;45.490;4.912;2022-10-17T01:52:40;12.05;;;4.15;;
40122;SDS011;25832;45.490;4.912;2022-10-17T01:55:11;6.75;;;3.88;;
40122;SDS011;25832;45.490;4.912;2022-10-17T01:58:05;8.50;;;3.25;;
40122;SDS011;25832;45.490;4.912;2022-10-17T02:00:31;5.57;;;3.50;;
40122;SDS011;25832;45.490;4.912;2022-10-17T02:03:03;3.85;;;2.92;;
40122;SDS011;25832;45.490;4.912;2022-10-17T02:05:32;7.80;;;3.23;;
40122;SDS011;25832;45.490;4.912;2022-10-17T02:13:08;6.60;;;3.15;;
40122;SDS011;25832;45.490;4.912;2022-10-17T02:18:46;5.47;;;3.13;;
40122;SDS011;25832;45.490;4.912;2022-10-17T02:21:25;4.38;;;2.85;;
40122;SDS011;25832;45.490;4.912;2022-10-17T02:26:53;6.35;;;3.97;;
40122;SDS011;25832;45.490;4.912;2022-10-17T02:29:28;4.85;;;3.63;;
40122;SDS011;25832;45.490;4.912;2022-10-17T02:32:09;4.82;;;2.95;;
40122;SDS011;25832;45.490;4.912;2022-10-17T02:34:49;3.92;;;2.97;;
40122;SDS011;25832;45.490;4.912;2022-10-17T02:37:18;5.78;;;2.90;;
40122;SDS011;25832;45.490;4.912;2022-10-17T02:39:49;6.68;;;3.72;;
40122;SDS011;25832;45.490;4.912;2022-10-17T02:42:15;6.50;;;3.22;;
40122;SDS011;25832;45.490;4.912;2022-10-17T02:44:45;5.22;;;3.78;;
40122;SDS011;25832;45.490;4.912;2022-10-17T02:47:22;8.15;;;3.67;;
40122;SDS011;25832;45.490;4.912;2022-10-17T02:49:52;5.70;;;3.28;;
40122;SDS011;25832;45.490;4.912;2022-10-17T02:54:55;4.45;;;3.03;;
40122;SDS011;25832;45.490;4.912;2022-10-17T02:57:33;5.13;;;3.15;;
40122;SDS011;25832;45.490;4.912;2022-10-17T03:00:01;6.20;;;3.22;;
40122;SDS011;25832;45.490;4.912;2022-10-17T03:02:38;7.68;;;3.30;;
40122;SDS011;25832;45.490;4.912;2022-10-17T03:05:05;6.38;;;3.00;;
40122;SDS011;25832;45.490;4.912;2022-10-17T03:07:31;5.40;;;3.25;;
40122;SDS011;25832;45.490;4.912;2022-10-17T03:09:57;10.48;;;4.00;;
40122;SDS011;25832;45.490;4.912;2022-10-17T03:12:23;5.25;;;3.03;;
40122;SDS011;25832;45.490;4.912;2022-10-17T03:14:48;8.63;;;3.85;;
40122;SDS011;25832;45.490;4.912;2022-10-17T03:17:14;7.25;;;3.83;;
40122;SDS011;25832;45.490;4.912;2022-10-17T03:19:39;5.80;;;3.47;;
40122;SDS011;25832;45.490;4.912;2022-10-17T03:22:05;7.07;;;3.63;;
40122;SDS011;25832;45.490;4.912;2022-10-17T03:24:31;5.85;;;3.47;;
40122;SDS011;25832;45.490;4.912;2022-10-17T03:26:56;5.63;;;3.90;;
40122;SDS011;25832;45.490;4.912;2022-10-17T03:29:22;7.65;;;3.58;;
40122;SDS011;25832;45.490;4.912;2022-10-17T03:31:48;5.07;;;3.30;;
40122;SDS011;25832;45.490;4.912;2022-10-17T03:34:13;6.95;;;3.42;;
40122;SDS011;25832;45.490;4.912;2022-10-17T03:36:41;5.68;;;3.88;;
40122;SDS011;25832;45.490;4.912;2022-10-17T03:39:07;5.40;;;3.38;;
40122;SDS011;25832;45.490;4.912;2022-10-17T03:41:33;6.03;;;3.88;;
40122;SDS011;25832;45.490;4.912;2022-10-17T03:43:59;4.38;;;3.63;;
40122;SDS011;25832;45.490;4.912;2022-10-17T03:46:25;4.88;;;3.05;;
40122;SDS011;25832;45.490;4.912;2022-10-17T03:48:50;6.25;;;3.72;;
40122;SDS011;25832;45.490;4.912;2022-10-17T03:51:16;7.63;;;4.00;;
40122;SDS011;25832;45.490;4.912;2022-10-17T03:53:42;5.53;;;3.65;;
40122;SDS011;25832;45.490;4.912;2022-10-17T03:56:11;6.07;;;3.22;;
40122;SDS011;25832;45.490;4.912;2022-10-17T03:58:37;5.07;;;3.08;;
40122;SDS011;25832;45.490;4.912;2022-10-17T04:01:04;5.30;;;3.30;;
40122;SDS011;25832;45.490;4.912;2022-10-17T04:03:31;6.40;;;3.60;;
40122;SDS011;25832;45.490;4.912;2022-10-17T04:06:01;3.58;;;3.05;;
40122;SDS011;25832;45.490;4.912;2022-10-17T04:10:57;7.10;;;3.30;;
40122;SDS011;25832;45.490;4.912;2022-10-17T04:13:23;7.40;;;3.13;;
40122;SDS011;25832;45.490;4.912;2022-10-17T04:15:52;5.80;;;3.17;;
40122;SDS011;25832;45.490;4.912;2022-10-17T04:18:19;3.78;;;3.38;;
40122;SDS011;25832;45.490;4.912;2022-10-17T04:20:45;5.68;;;3.58;;
40122;SDS011;25832;45.490;4.912;2022-10-17T04:23:10;6.28;;;3.58;;
40122;SDS011;25832;45.490;4.912;2022-10-17T04:25:36;6.45;;;3.45;;
40122;SDS011;25832;45.490;4.912;2022-10-17T04:28:02;5.72;;;3.70;;
40122;SDS011;25832;45.490;4.912;2022-10-17T04:30:27;6.28;;;3.65;;
40122;SDS011;25832;45.490;4.912;2022-10-17T04:32:53;7.88;;;3.60;;
40122;SDS011;25832;45.490;4.912;2022-10-17T04:35:19;7.47;;;3.15;;
40122;SDS011;25832;45.490;4.912;2022-10-17T04:37:44;5.13;;;3.30;;
40122;SDS011;25832;45.490;4.912;2022-10-17T04:40:10;5.78;;;3.50;;
40122;SDS011;25832;45.490;4.912;2022-10-17T04:42:36;5.15;;;3.10;;
40122;SDS011;25832;45.490;4.912;2022-10-17T04:45:01;5.75;;;3.28;;
40122;SDS011;25832;45.490;4.912;2022-10-17T04:47:28;6.32;;;3.70;;
40122;SDS011;25832;45.490;4.912;2022-10-17T04:49:53;3.53;;;3.05;;
40122;SDS011;25832;45.490;4.912;2022-10-17T04:52:19;6.65;;;3.53;;
40122;SDS011;25832;45.490;4.912;2022-10-17T04:54:44;6.72;;;3.50;;
40122;SDS011;25832;45.490;4.912;2022-10-17T04:57:10;7.10;;;3.40;;
40122;SDS011;25832;45.490;4.912;2022-10-17T04:59:36;5.78;;;2.85;;
40122;SDS011;25832;45.490;4.912;2022-10-17T05:02:02;5.25;;;3.15;;
40122;SDS011;25832;45.490;4.912;2022-10-17T05:04:27;8.45;;;3.55;;
40122;SDS011;25832;45.490;4.912;2022-10-17T05:06:53;5.95;;;2.85;;
40122;SDS011;25832;45.490;4.912;2022-10-17T05:09:19;6.70;;;2.95;;
40122;SDS011;25832;45.490;4.912;2022-10-17T05:11:44;4.93;;;3.00;;
40122;SDS011;25832;45.490;4.912;2022-10-17T05:14:10;4.07;;;3.00;;
40122;SDS011;25832;45.490;4.912;2022-10-17T05:16:36;6.10;;;3.25;;
40122;SDS011;25832;45.490;4.912;2022-10-17T05:19:01;4.57;;;3.08;;
40122;SDS011;25832;45.490;4.912;2022-10-17T05:21:27;3.08;;;2.78;;
40122;SDS011;25832;45.490;4.912;2022-10-17T05:23:54;4.63;;;2.83;;
40122;SDS011;25832;45.490;4.912;2022-10-17T05:26:20;5.35;;;2.83;;
40122;SDS011;25832;45.490;4.912;2022-10-17T05:28:46;7.97;;;2.97;;
40122;SDS011;25832;45.490;4.912;2022-10-17T05:31:12;7.30;;;2.33;;
40122;SDS011;25832;45.490;4.912;2022-10-17T05:33:39;5.82;;;3.03;;
40122;SDS011;25832;45.490;4.912;2022-10-17T05:36:05;9.00;;;3.25;;
40122;SDS011;25832;45.490;4.912;2022-10-17T05:38:31;3.70;;;2.72;;
40122;SDS011;25832;45.490;4.912;2022-10-17T05:41:00;5.97;;;3.30;;
40122;SDS011;25832;45.490;4.912;2022-10-17T05:43:28;5.43;;;3.30;;
40122;SDS011;25832;45.490;4.912;2022-10-17T05:45:55;7.13;;;2.88;;
40122;SDS011;25832;45.490;4.912;2022-10-17T05:48:21;7.30;;;3.50;;
40122;SDS011;25832;45.490;4.912;2022-10-17T05:50:47;5.15;;;2.90;;
40122;SDS011;25832;45.490;4.912;2022-10-17T05:53:14;6.18;;;4.03;;
40122;SDS011;25832;45.490;4.912;2022-10-17T05:55:40;4.63;;;2.72;;
40122;SDS011;25832;45.490;4.912;2022-10-17T05:58:06;5.20;;;2.80;;
40122;SDS011;25832;45.490;4.912;2022-10-17T06:00:31;4.30;;;3.05;;
40122;SDS011;25832;45.490;4.912;2022-10-17T06:02:57;7.38;;;3.03;;
40122;SDS011;25832;45.490;4.912;2022-10-17T06:05:23;5.45;;;2.65;;
40122;SDS011;25832;45.490;4.912;2022-10-17T06:07:48;6.47;;;2.55;;
40122;SDS011;25832;45.490;4.912;2022-10-17T06:10:16;5.28;;;3.53;;
40122;SDS011;25832;45.490;4.912;2022-10-17T06:12:43;4.07;;;2.55;;
40122;SDS011;25832;45.490;4.912;2022-10-17T06:15:08;3.53;;;2.60;;
40122;SDS011;25832;45.490;4.912;2022-10-17T06:17:34;5.63;;;3.03;;
40122;SDS011;25832;45.490;4.912;2022-10-17T06:20:00;6.47;;;2.80;;
40122;SDS011;25832;45.490;4.912;2022-10-17T06:22:26;5.35;;;3.47;;
40122;SDS011;25832;45.490;4.912;2022-10-17T06:24:51;5.07;;;2.70;;
40122;SDS011;25832;45.490;4.912;2022-10-17T06:27:18;4.15;;;2.55;;
40122;SDS011;25832;45.490;4.912;2022-10-17T06:29:44;4.95;;;3.33;;
40122;SDS011;25832;45.490;4.912;2022-10-17T06:32:10;5.45;;;3.00;;
40122;SDS011;25832;45.490;4.912;2022-10-17T06:34:36;3.47;;;2.42;;
40122;SDS011;25832;45.490;4.912;2022-10-17T06:37:02;5.68;;;2.90;;
40122;SDS011;25832;45.490;4.912;2022-10-17T06:39:27;4.13;;;3.05;;
40122;SDS011;25832;45.490;4.912;2022-10-17T06:41:58;4.18;;;2.85;;
40122;SDS011;25832;45.490;4.912;2022-10-17T06:44:24;4.93;;;2.63;;
40122;SDS011;25832;45.490;4.912;2022-10-17T06:46:54;3.97;;;2.88;;
40122;SDS011;25832;45.490;4.912;2022-10-17T06:49:21;10.18;;;2.88;;
40122;SDS011;25832;45.490;4.912;2022-10-17T06:51:47;5.97;;;3.17;;
40122;SDS011;25832;45.490;4.912;2022-10-17T06:54:12;6.72;;;2.35;;
40122;SDS011;25832;45.490;4.912;2022-10-17T06:56:38;4.80;;;3.13;;
40122;SDS011;25832;45.490;4.912;2022-10-17T06:59:04;3.67;;;2.83;;
40122;SDS011;25832;45.490;4.912;2022-10-17T07:01:30;9.05;;;3.08;;
40122;SDS011;25832;45.490;4.912;2022-10-17T07:03:56;6.90;;;3.30;;
40122;SDS011;25832;45.490;4.912;2022-10-17T07:06:22;6.95;;;2.47;;
40122;SDS011;25832;45.490;4.912;2022-10-17T07:08:50;4.70;;;2.72;;
40122;SDS011;25832;45.490;4.912;2022-10-17T07:11:17;4.70;;;2.85;;
40122;SDS011;25832;45.490;4.912;2022-10-17T07:13:44;4.50;;;2.38;;
40122;SDS011;25832;45.490;4.912;2022-10-17T07:16:11;5.75;;;3.47;;
40122;SDS011;25832;45.490;4.912;2022-10-17T07:18:37;3.72;;;3.03;;
40122;SDS011;25832;45.490;4.912;2022-10-17T07:21:03;4.72;;;3.05;;
40122;SDS011;25832;45.490;4.912;2022-10-17T07:23:29;7.35;;;3.35;;
40122;SDS011;25832;45.490;4.912;2022-10-17T07:25:59;6.53;;;4.00;;
40122;SDS011;25832;45.490;4.912;2022-10-17T07:28:26;6.47;;;3.13;;
40122;SDS011;25832;45.490;4.912;2022-10-17T07:30:52;4.35;;;3.38;;
40122;SDS011;25832;45.490;4.912;2022-10-17T07:33:19;5.45;;;2.83;;
40122;SDS011;25832;45.490;4.912;2022-10-17T07:35:44;3.70;;;2.88;;
40122;SDS011;25832;45.490;4.912;2022-10-17T07:38:10;3.88;;;2.70;;
40122;SDS011;25832;45.490;4.912;2022-10-17T07:40:36;3.75;;;2.78;;
40122;SDS011;25832;45.490;4.912;2022-10-17T07:43:01;5.18;;;2.80;;
40122;SDS011;25832;45.490;4.912;2022-10-17T07:45:27;5.18;;;2.95;;
40122;SDS011;25832;45.490;4.912;2022-10-17T07:47:56;3.90;;;2.40;;
40122;SDS011;25832;45.490;4.912;2022-10-17T07:50:22;6.82;;;2.83;;
40122;SDS011;25832;45.490;4.912;2022-10-17T07:52:48;4.80;;;2.92;;
40122;SDS011;25832;45.490;4.912;2022-10-17T07:55:14;4.18;;;2.60;;
40122;SDS011;25832;45.490;4.912;2022-10-17T07:57:39;6.78;;;3.08;;
40122;SDS011;25832;45.490;4.912;2022-10-17T08:00:06;5.22;;;2.70;;
40122;SDS011;25832;45.490;4.912;2022-10-17T08:02:32;5.35;;;2.70;;
40122;SDS011;25832;45.490;4.912;2022-10-17T08:04:58;5.68;;;3.30;;
40122;SDS011;25832;45.490;4.912;2022-10-17T08:07:24;7.03;;;3.30;;
40122;SDS011;25832;45.490;4.912;2022-10-17T08:09:49;5.10;;;3.55;;
40122;SDS011;25832;45.490;4.912;2022-10-17T08:12:15;10.52;;;3.75;;
40122;SDS011;25832;45.490;4.912;2022-10-17T08:14:41;3.83;;;2.75;;
40122;SDS011;25832;45.490;4.912;2022-10-17T08:17:07;4.38;;;3.10;;
40122;SDS011;25832;45.490;4.912;2022-10-17T08:19:33;6.22;;;2.80;;
40122;SDS011;25832;45.490;4.912;2022-10-17T08:22:02;3.92;;;2.92;;
40122;SDS011;25832;45.490;4.912;2022-10-17T08:24:28;4.55;;;2.70;;
40122;SDS011;25832;45.490;4.912;2022-10-17T08:26:53;5.38;;;3.10;;
40122;SDS011;25832;45.490;4.912;2022-10-17T08:29:21;4.05;;;2.83;;
40122;SDS011;25832;45.490;4.912;2022-10-17T08:31:47;3.25;;;2.60;;
40122;SDS011;25832;45.490;4.912;2022-10-17T08:34:12;4.75;;;3.42;;
40122;SDS011;25832;45.490;4.912;2022-10-17T08:36:39;5.03;;;2.85;;
40122;SDS011;25832;45.490;4.912;2022-10-17T08:39:05;4.38;;;3.47;;
40122;SDS011;25832;45.490;4.912;2022-10-17T08:47:26;5.50;;;3.42;;
40122;SDS011;25832;45.490;4.912;2022-10-17T08:50:00;4.32;;;2.92;;
40122;SDS011;25832;45.490;4.912;2022-10-17T08:52:36;4.25;;;2.85;;
40122;SDS011;25832;45.490;4.912;2022-10-17T08:55:30;5.30;;;3.00;;
40122;SDS011;25832;45.490;4.912;2022-10-17T08:58:00;6.55;;;3.30;;
40122;SDS011;25832;45.490;4.912;2022-10-17T09:00:27;4.70;;;3.33;;
40122;SDS011;25832;45.490;4.912;2022-10-17T09:05:45;8.40;;;3.13;;
40122;SDS011;25832;45.490;4.912;2022-10-17T09:10:49;4.80;;;2.33;;
40122;SDS011;25832;45.490;4.912;2022-10-17T09:19:44;9.57;;;4.65;;
40122;SDS011;25832;45.490;4.912;2022-10-17T09:21:55;6.20;;;2.97;;
40122;SDS011;25832;45.490;4.912;2022-10-17T09:27:16;5.80;;;2.67;;
40122;SDS011;25832;45.490;4.912;2022-10-17T09:32:52;3.42;;;2.30;;
40122;SDS011;25832;45.490;4.912;2022-10-17T09:35:17;5.95;;;2.78;;
40122;SDS011;25832;45.490;4.912;2022-10-17T09:37:44;6.60;;;2.20;;
40122;SDS011;25832;45.490;4.912;2022-10-17T09:40:24;7.05;;;2.33;;
40122;SDS011;25832;45.490;4.912;2022-10-17T09:42:55;4.55;;;2.42;;
40122;SDS011;25832;45.490;4.912;2022-10-17T09:45:22;6.72;;;3.10;;
40122;SDS011;25832;45.490;4.912;2022-10-17T09:48:01;6.63;;;2.30;;
40122;SDS011;25832;45.490;4.912;2022-10-17T09:50:30;6.80;;;3.20;;
40122;SDS011;25832;45.490;4.912;2022-10-17T09:52:59;3.72;;;2.25;;
40122;SDS011;25832;45.490;4.912;2022-10-17T09:55:44;3.85;;;2.50;;
40122;SDS011;25832;45.490;4.912;2022-10-17T09:58:14;2.53;;;2.05;;
40122;SDS011;25832;45.490;4.912;2022-10-17T10:00:41;6.22;;;3.17;;
40122;SDS011;25832;45.490;4.912;2022-10-17T10:05:37;5.15;;;2.30;;
40122;SDS011;25832;45.490;4.912;2022-10-17T10:08:05;4.68;;;2.75;;
40122;SDS011;25832;45.490;4.912;2022-10-17T10:10:41;4.00;;;2.60;;
40122;SDS011;25832;45.490;4.912;2022-10-17T10:15:37;7.15;;;2.65;;
40122;SDS011;25832;45.490;4.912;2022-10-17T10:21:09;6.03;;;2.30;;
40122;SDS011;25832;45.490;4.912;2022-10-17T10:23:38;4.57;;;2.20;;
40122;SDS011;25832;45.490;4.912;2022-10-17T10:26:17;2.65;;;2.00;;
40122;SDS011;25832;45.490;4.912;2022-10-17T10:28:50;4.90;;;2.03;;
40122;SDS011;25832;45.490;4.912;2022-10-17T10:31:23;4.50;;;2.55;;
40122;SDS011;25832;45.490;4.912;2022-10-17T10:33:52;6.97;;;2.72;;
40122;SDS011;25832;45.490;4.912;2022-10-17T10:36:17;2.70;;;1.85;;
40122;SDS011;25832;45.490;4.912;2022-10-17T10:38:50;6.28;;;2.60;;
40122;SDS011;25832;45.490;4.912;2022-10-17T10:41:21;2.58;;;1.92;;
40122;SDS011;25832;45.490;4.912;2022-10-17T10:43:48;3.53;;;2.45;;
40122;SDS011;25832;45.490;4.912;2022-10-17T10:46:19;4.50;;;1.92;;
40122;SDS011;25832;45.490;4.912;2022-10-17T10:51:18;2.92;;;2.38;;
40122;SDS011;25832;45.490;4.912;2022-10-17T10:53:56;2.97;;;2.00;;
40122;SDS011;25832;45.490;4.912;2022-10-17T10:56:51;4.03;;;2.45;;
40122;SDS011;25832;45.490;4.912;2022-10-17T11:01:49;4.13;;;2.13;;
40122;SDS011;25832;45.490;4.912;2022-10-17T11:17:31;3.30;;;1.95;;
40122;SDS011;25832;45.490;4.912;2022-10-17T11:22:35;3.25;;;2.00;;
40122;SDS011;25832;45.490;4.912;2022-10-17T11:27:58;2.78;;;1.98;;
40122;SDS011;25832;45.490;4.912;2022-10-17T11:30:26;2.50;;;2.00;;
40122;SDS011;25832;45.490;4.912;2022-10-17T11:32:59;2.45;;;1.83;;
40122;SDS011;25832;45.490;4.912;2022-10-17T11:35:27;7.15;;;1.80;;
40122;SDS011;25832;45.490;4.912;2022-10-17T11:40:27;6.20;;;1.98;;
40122;SDS011;25832;45.490;4.912;2022-10-17T11:43:01;2.70;;;2.20;;
40122;SDS011;25832;45.490;4.912;2022-10-17T11:45:41;2.40;;;1.85;;
40122;SDS011;25832;45.490;4.912;2022-10-17T11:48:18;4.88;;;1.90;;
40122;SDS011;25832;45.490;4.912;2022-10-17T11:51:15;6.15;;;2.10;;
40122;SDS011;25832;45.490;4.912;2022-10-17T11:53:54;4.32;;;2.20;;
40122;SDS011;25832;45.490;4.912;2022-10-17T11:56:34;2.45;;;1.80;;
40122;SDS011;25832;45.490;4.912;2022-10-17T12:01:53;2.50;;;1.70;;
40122;SDS011;25832;45.490;4.912;2022-10-17T12:07:14;3.55;;;2.15;;
40122;SDS011;25832;45.490;4.912;2022-10-17T12:10:32;4.00;;;1.90;;
40122;SDS011;25832;45.490;4.912;2022-10-17T12:12:58;2.13;;;1.50;;
40122;SDS011;25832;45.490;4.912;2022-10-17T12:15:51;2.92;;;1.92;;
40122;SDS011;25832;45.490;4.912;2022-10-17T12:18:17;4.57;;;1.85;;
40122;SDS011;25832;45.490;4.912;2022-10-17T12:20:45;4.72;;;2.13;;
40122;SDS011;25832;45.490;4.912;2022-10-17T12:23:22;2.83;;;1.63;;
40122;SDS011;25832;45.490;4.912;2022-10-17T12:25:54;3.00;;;1.90;;
40122;SDS011;25832;45.490;4.912;2022-10-17T12:30:58;4.78;;;1.90;;
40122;SDS011;25832;45.490;4.912;2022-10-17T12:33:34;7.88;;;2.30;;
40122;SDS011;25832;45.490;4.912;2022-10-17T12:38:45;3.03;;;1.70;;
40122;SDS011;25832;45.490;4.912;2022-10-17T12:41:15;3.72;;;2.17;;
40122;SDS011;25832;45.490;4.912;2022-10-17T12:44:01;4.10;;;1.90;;
40122;SDS011;25832;45.490;4.912;2022-10-17T12:52:03;3.75;;;2.38;;
40122;SDS011;25832;45.490;4.912;2022-10-17T12:54:42;4.70;;;2.30;;
40122;SDS011;25832;45.490;4.912;2022-10-17T12:57:21;3.25;;;2.42;;
40122;SDS011;25832;45.490;4.912;2022-10-17T12:59:48;4.70;;;1.63;;
40122;SDS011;25832;45.490;4.912;2022-10-17T13:02:21;5.22;;;2.10;;
40122;SDS011;25832;45.490;4.912;2022-10-17T13:04:51;3.00;;;2.20;;
40122;SDS011;25832;45.490;4.912;2022-10-17T13:07:22;3.60;;;2.33;;
40122;SDS011;25832;45.490;4.912;2022-10-17T13:09:48;3.25;;;2.13;;
40122;SDS011;25832;45.490;4.912;2022-10-17T13:12:20;3.63;;;2.38;;
40122;SDS011;25832;45.490;4.912;2022-10-17T13:14:49;6.05;;;2.33;;
40122;SDS011;25832;45.490;4.912;2022-10-17T13:17:27;9.10;;;2.33;;
40122;SDS011;25832;45.490;4.912;2022-10-17T13:19:55;3.85;;;2.00;;
40122;SDS011;25832;45.490;4.912;2022-10-17T13:22:43;5.95;;;2.17;;
40122;SDS011;25832;45.490;4.912;2022-10-17T13:25:19;6.32;;;2.30;;
40122;SDS011;25832;45.490;4.912;2022-10-17T13:27:45;3.10;;;1.95;;
40122;SDS011;25832;45.490;4.912;2022-10-17T13:32:54;4.32;;;2.10;;
40122;SDS011;25832;45.490;4.912;2022-10-17T13:35:33;3.33;;;1.90;;
40122;SDS011;25832;45.490;4.912;2022-10-17T13:38:00;3.72;;;2.00;;
40122;SDS011;25832;45.490;4.912;2022-10-17T13:40:29;3.33;;;2.20;;
40122;SDS011;25832;45.490;4.912;2022-10-17T13:42:56;2.88;;;2.08;;
40122;SDS011;25832;45.490;4.912;2022-10-17T13:47:56;5.80;;;2.08;;
40122;SDS011;25832;45.490;4.912;2022-10-17T13:50:32;2.58;;;1.70;;
40122;SDS011;25832;45.490;4.912;2022-10-17T13:53:35;3.83;;;1.67;;
40122;SDS011;25832;45.490;4.912;2022-10-17T13:58:23;4.07;;;2.08;;
40122;SDS011;25832;45.490;4.912;2022-10-17T14:00:50;4.38;;;2.13;;
40122;SDS011;25832;45.490;4.912;2022-10-17T14:03:20;4.10;;;1.83;;
40122;SDS011;25832;45.490;4.912;2022-10-17T14:08:59;2.38;;;1.77;;
40122;SDS011;25832;45.490;4.912;2022-10-17T14:11:32;2.42;;;2.03;;
40122;SDS011;25832;45.490;4.912;2022-10-17T14:14:04;2.05;;;1.63;;
40122;SDS011;25832;45.490;4.912;2022-10-17T14:16:32;2.47;;;1.90;;
40122;SDS011;25832;45.490;4.912;2022-10-17T14:19:12;5.00;;;2.10;;
40122;SDS011;25832;45.490;4.912;2022-10-17T14:21:47;4.25;;;2.38;;
40122;SDS011;25832;45.490;4.912;2022-10-17T14:24:15;3.90;;;2.47;;
40122;SDS011;25832;45.490;4.912;2022-10-17T14:29:27;3.05;;;2.25;;
40122;SDS011;25832;45.490;4.912;2022-10-17T14:31:56;3.25;;;2.00;;
40122;SDS011;25832;45.490;4.912;2022-10-17T14:34:35;4.60;;;2.27;;
40122;SDS011;25832;45.490;4.912;2022-10-17T14:40:13;2.78;;;1.77;;
40122;SDS011;25832;45.490;4.912;2022-10-17T14:42:41;3.97;;;2.15;;
40122;SDS011;25832;45.490;4.912;2022-10-17T14:45:12;3.83;;;1.92;;
40122;SDS011;25832;45.490;4.912;2022-10-17T14:47:42;3.25;;;2.05;;
40122;SDS011;25832;45.490;4.912;2022-10-17T14:52:36;2.15;;;1.90;;
40122;SDS011;25832;45.490;4.912;2022-10-17T14:58:15;4.50;;;2.30;;
40122;SDS011;25832;45.490;4.912;2022-10-17T15:00:42;2.25;;;1.58;;
40122;SDS011;25832;45.490;4.912;2022-10-17T15:03:07;3.20;;;1.70;;
40122;SDS011;25832;45.490;4.912;2022-10-17T15:05:33;3.90;;;2.10;;
40122;SDS011;25832;45.490;4.912;2022-10-17T15:07:59;2.75;;;2.08;;
40122;SDS011;25832;45.490;4.912;2022-10-17T15:10:32;3.30;;;2.20;;
40122;SDS011;25832;45.490;4.912;2022-10-17T15:13:00;2.80;;;1.95;;
40122;SDS011;25832;45.490;4.912;2022-10-17T15:15:27;4.50;;;1.90;;
40122;SDS011;25832;45.490;4.912;2022-10-17T15:17:54;5.88;;;2.20;;
40122;SDS011;25832;45.490;4.912;2022-10-17T15:20:20;2.65;;;2.08;;
40122;SDS011;25832;45.490;4.912;2022-10-17T15:22:50;5.95;;;1.80;;
40122;SDS011;25832;45.490;4.912;2022-10-17T15:25:19;8.43;;;2.30;;
40122;SDS011;25832;45.490;4.912;2022-10-17T15:27:45;4.60;;;2.20;;
40122;SDS011;25832;45.490;4.912;2022-10-17T15:30:16;5.55;;;1.98;;
40122;SDS011;25832;45.490;4.912;2022-10-17T15:32:47;4.38;;;2.13;;
40122;SDS011;25832;45.490;4.912;2022-10-17T15:35:13;2.95;;;1.63;;
40122;SDS011;25832;45.490;4.912;2022-10-17T15:37:40;4.03;;;2.08;;
40122;SDS011;25832;45.490;4.912;2022-10-17T15:40:17;8.18;;;2.42;;
40122;SDS011;25832;45.490;4.912;2022-10-17T15:42:46;2.70;;;1.92;;
40122;SDS011;25832;45.490;4.912;2022-10-17T15:45:12;2.97;;;1.98;;
40122;SDS011;25832;45.490;4.912;2022-10-17T15:47:40;2.80;;;1.70;;
40122;SDS011;25832;45.490;4.912;2022-10-17T15:50:09;4.70;;;2.10;;
40122;SDS011;25832;45.490;4.912;2022-10-17T15:52:38;3.72;;;1.80;;
40122;SDS011;25832;45.490;4.912;2022-10-17T15:55:05;5.22;;;2.20;;
40122;SDS011;25832;45.490;4.912;2022-10-17T15:57:33;5.95;;;2.28;;
40122;SDS011;25832;45.490;4.912;2022-10-17T16:02:29;2.28;;;1.90;;
40122;SDS011;25832;45.490;4.912;2022-10-17T16:04:54;6.13;;;2.30;;
40122;SDS011;25832;45.490;4.912;2022-10-17T16:07:20;2.90;;;2.10;;
40122;SDS011;25832;45.490;4.912;2022-10-17T16:09:46;5.15;;;2.40;;
40122;SDS011;25832;45.490;4.912;2022-10-17T16:12:14;2.47;;;1.92;;
40122;SDS011;25832;45.490;4.912;2022-10-17T16:14:52;4.30;;;2.53;;
40122;SDS011;25832;45.490;4.912;2022-10-17T16:17:18;3.88;;;1.85;;
40122;SDS011;25832;45.490;4.912;2022-10-17T16:19:43;7.45;;;2.70;;
40122;SDS011;25832;45.490;4.912;2022-10-17T16:25:06;5.47;;;2.42;;
40122;SDS011;25832;45.490;4.912;2022-10-17T16:27:43;6.25;;;2.78;;
40122;SDS011;25832;45.490;4.912;2022-10-17T16:30:13;5.10;;;2.60;;
40122;SDS011;25832;45.490;4.912;2022-10-17T16:32:40;4.47;;;2.22;;
40122;SDS011;25832;45.490;4.912;2022-10-17T16:35:05;4.50;;;2.22;;
40122;SDS011;25832;45.490;4.912;2022-10-17T16:37:32;5.72;;;2.28;;
40122;SDS011;25832;45.490;4.912;2022-10-17T16:39:58;4.13;;;2.97;;
40122;SDS011;25832;45.490;4.912;2022-10-17T16:42:24;4.35;;;2.58;;
40122;SDS011;25832;45.490;4.912;2022-10-17T16:44:50;6.45;;;2.50;;
40122;SDS011;25832;45.490;4.912;2022-10-17T16:47:16;3.67;;;2.35;;
40122;SDS011;25832;45.490;4.912;2022-10-17T16:49:42;5.38;;;2.30;;
40122;SDS011;25832;45.490;4.912;2022-10-17T16:52:08;5.05;;;2.90;;
40122;SDS011;25832;45.490;4.912;2022-10-17T16:54:34;5.47;;;2.38;;
40122;SDS011;25832;45.490;4.912;2022-10-17T16:57:00;7.20;;;2.40;;
40122;SDS011;25832;45.490;4.912;2022-10-17T16:59:26;9.20;;;2.83;;
40122;SDS011;25832;45.490;4.912;2022-10-17T17:01:52;4.00;;;2.53;;
40122;SDS011;25832;45.490;4.912;2022-10-17T17:04:18;5.90;;;2.42;;
40122;SDS011;25832;45.490;4.912;2022-10-17T17:06:44;5.88;;;2.33;;
40122;SDS011;25832;45.490;4.912;2022-10-17T17:09:10;4.85;;;2.53;;
40122;SDS011;25832;45.490;4.912;2022-10-17T17:11:36;4.53;;;2.45;;
40122;SDS011;25832;45.490;4.912;2022-10-17T17:14:03;4.25;;;2.53;;
40122;SDS011;25832;45.490;4.912;2022-10-17T17:16:37;4.35;;;2.35;;